sensor_id;sensor_type;location;lat;lon;timestamp;pressure;altitude;pressure_sealevel;temperature;humidity
75006;BME280;63553;51.814;4.600;2023-11-19T00:00:19;100967.44;;;14.81;83.30
75006;BME280;63553;51.814;4.600;2023-11-19T00:02:44;100968.38;;;14.97;81.73
75006;BME280;63553;51.814;4.600;2023-11-19T00:05:10;100951.94;;;14.84;83.24
75006;BME280;63553;51.814;4.600;2023-11-19T00:07:39;100953.34;;;14.90;82.62
75006;BME280;63553;51.814;4.600;2023-11-19T00:10:17;100958.69;;;14.95;82.30
75006;BME280;63553;51.814;4.600;2023-11-19T00:12:49;100947.34;;;14.79;83.01
75006;BME280;63553;51.814;4.600;2023-11-19T00:15:16;100949.13;;;14.72;84.36
75006;BME280;63553;51.814;4.600;2023-11-19T00:17:45;100952.16;;;14.67;84.41
75006;BME280;63553;51.814;4.600;2023-11-19T00:20:20;100954.00;;;14.75;84.03
75006;BME280;63553;51.814;4.600;2023-11-19T00:22:47;100960.50;;;14.55;85.85
75006;BME280;63553;51.814;4.600;2023-11-19T00:25:19;100968.00;;;14.75;83.46
75006;BME280;63553;51.814;4.600;2023-11-19T00:27:46;100964.97;;;14.80;82.90
75006;BME280;63553;51.814;4.600;2023-11-19T00:30:12;100971.03;;;14.70;84.06
75006;BME280;63553;51.814;4.600;2023-11-19T00:32:38;100969.53;;;14.84;82.76
75006;BME280;63553;51.814;4.600;2023-11-19T00:35:05;100976.09;;;15.00;81.39
75006;BME280;63553;51.814;4.600;2023-11-19T00:37:31;100967.56;;;14.97;81.57
75006;BME280;63553;51.814;4.600;2023-11-19T00:39:56;100957.41;;;14.92;81.97
75006;BME280;63553;51.814;4.600;2023-11-19T00:42:23;100963.03;;;15.05;80.57
75006;BME280;63553;51.814;4.600;2023-11-19T00:44:50;100962.53;;;15.02;80.79
75006;BME280;63553;51.814;4.600;2023-11-19T00:47:15;100970.72;;;14.95;81.38
75006;BME280;63553;51.814;4.600;2023-11-19T00:49:40;100978.19;;;15.03;80.69
75006;BME280;63553;51.814;4.600;2023-11-19T00:52:06;100966.53;;;15.01;80.74
75006;BME280;63553;51.814;4.600;2023-11-19T00:54:32;100969.66;;;14.88;81.76
75006;BME280;63553;51.814;4.600;2023-11-19T00:56:57;100961.38;;;14.91;81.07
75006;BME280;63553;51.814;4.600;2023-11-19T00:59:22;100955.78;;;14.91;81.16
75006;BME280;63553;51.814;4.600;2023-11-19T01:01:48;100941.44;;;14.81;81.92
75006;BME280;63553;51.814;4.600;2023-11-19T01:04:14;100938.50;;;14.77;81.44
75006;BME280;63553;51.814;4.600;2023-11-19T01:06:40;100938.84;;;14.64;82.16
75006;BME280;63553;51.814;4.600;2023-11-19T01:09:07;100944.34;;;14.84;81.17
75006;BME280;63553;51.814;4.600;2023-11-19T01:11:34;100941.22;;;15.10;79.56
75006;BME280;63553;51.814;4.600;2023-11-19T01:13:59;100941.19;;;14.74;81.08
75006;BME280;63553;51.814;4.600;2023-11-19T01:16:26;100930.66;;;14.71;81.65
75006;BME280;63553;51.814;4.600;2023-11-19T01:18:51;100931.41;;;14.92;80.34
75006;BME280;63553;51.814;4.600;2023-11-19T01:21:17;100936.97;;;14.80;80.65
75006;BME280;63553;51.814;4.600;2023-11-19T01:23:43;100930.19;;;14.57;81.74
75006;BME280;63553;51.814;4.600;2023-11-19T01:26:09;100948.53;;;14.66;80.79
75006;BME280;63553;51.814;4.600;2023-11-19T01:28:41;100943.25;;;14.65;81.24
75006;BME280;63553;51.814;4.600;2023-11-19T01:31:12;100935.22;;;14.63;81.06
75006;BME280;63553;51.814;4.600;2023-11-19T01:33:40;100929.59;;;14.18;82.14
75006;BME280;63553;51.814;4.600;2023-11-19T01:36:06;100914.75;;;14.38;82.56
75006;BME280;63553;51.814;4.600;2023-11-19T01:38:33;100919.94;;;14.49;81.68
75006;BME280;63553;51.814;4.600;2023-11-19T01:40:58;100924.00;;;14.18;81.92
75006;BME280;63553;51.814;4.600;2023-11-19T01:43:37;100918.63;;;14.46;81.69
75006;BME280;63553;51.814;4.600;2023-11-19T01:46:04;100923.63;;;14.40;82.27
75006;BME280;63553;51.814;4.600;2023-11-19T01:48:31;100930.84;;;14.41;81.12
75006;BME280;63553;51.814;4.600;2023-11-19T01:50:57;100937.56;;;14.08;82.44
75006;BME280;63553;51.814;4.600;2023-11-19T01:53:23;100934.72;;;14.16;82.99
75006;BME280;63553;51.814;4.600;2023-11-19T01:55:50;100928.16;;;14.33;81.72
75006;BME280;63553;51.814;4.600;2023-11-19T01:58:16;100924.94;;;14.43;81.21
75006;BME280;63553;51.814;4.600;2023-11-19T02:00:42;100927.16;;;14.29;81.55
75006;BME280;63553;51.814;4.600;2023-11-19T02:03:09;100940.31;;;14.28;81.57
75006;BME280;63553;51.814;4.600;2023-11-19T02:05:35;100947.78;;;14.45;81.23
75006;BME280;63553;51.814;4.600;2023-11-19T02:08:02;100936.59;;;14.57;80.44
75006;BME280;63553;51.814;4.600;2023-11-19T02:10:28;100944.16;;;14.44;80.84
75006;BME280;63553;51.814;4.600;2023-11-19T02:12:53;100947.03;;;14.36;80.90
75006;BME280;63553;51.814;4.600;2023-11-19T02:15:20;100962.91;;;14.44;80.99
75006;BME280;63553;51.814;4.600;2023-11-19T02:17:47;100957.78;;;14.13;82.00
75006;BME280;63553;51.814;4.600;2023-11-19T02:20:12;100947.56;;;14.62;80.38
75006;BME280;63553;51.814;4.600;2023-11-19T02:22:40;100948.47;;;14.42;81.06
75006;BME280;63553;51.814;4.600;2023-11-19T02:25:07;100950.19;;;14.14;81.73
75006;BME280;63553;51.814;4.600;2023-11-19T02:27:55;100941.38;;;14.24;81.47
75006;BME280;63553;51.814;4.600;2023-11-19T02:30:22;100938.41;;;14.08;82.06
75006;BME280;63553;51.814;4.600;2023-11-19T02:32:52;100942.28;;;14.16;81.18
75006;BME280;63553;51.814;4.600;2023-11-19T02:35:18;100936.72;;;13.95;81.65
75006;BME280;63553;51.814;4.600;2023-11-19T02:37:43;100938.81;;;14.19;81.74
75006;BME280;63553;51.814;4.600;2023-11-19T02:40:10;100931.44;;;14.14;81.48
75006;BME280;63553;51.814;4.600;2023-11-19T02:42:35;100939.63;;;14.31;81.20
75006;BME280;63553;51.814;4.600;2023-11-19T02:45:01;100946.47;;;14.10;81.83
75006;BME280;63553;51.814;4.600;2023-11-19T02:47:27;100944.72;;;14.17;81.83
75006;BME280;63553;51.814;4.600;2023-11-19T02:49:55;100945.22;;;14.19;81.35
75006;BME280;63553;51.814;4.600;2023-11-19T02:52:21;100934.81;;;13.87;81.16
75006;BME280;63553;51.814;4.600;2023-11-19T02:54:46;100930.53;;;13.89;82.61
75006;BME280;63553;51.814;4.600;2023-11-19T02:57:11;100947.22;;;13.57;83.83
75006;BME280;63553;51.814;4.600;2023-11-19T02:59:39;100941.06;;;13.63;85.07
75006;BME280;63553;51.814;4.600;2023-11-19T03:02:07;100945.78;;;13.92;84.85
75006;BME280;63553;51.814;4.600;2023-11-19T03:04:36;100937.94;;;13.85;82.65
75006;BME280;63553;51.814;4.600;2023-11-19T03:07:01;100937.59;;;13.66;84.99
75006;BME280;63553;51.814;4.600;2023-11-19T03:09:27;100937.13;;;13.64;84.52
75006;BME280;63553;51.814;4.600;2023-11-19T03:11:54;100942.13;;;13.59;82.30
75006;BME280;63553;51.814;4.600;2023-11-19T03:14:19;100948.69;;;13.96;83.37
75006;BME280;63553;51.814;4.600;2023-11-19T03:16:45;100934.06;;;13.57;81.74
75006;BME280;63553;51.814;4.600;2023-11-19T03:19:11;100939.09;;;13.64;83.46
75006;BME280;63553;51.814;4.600;2023-11-19T03:21:37;100927.59;;;13.45;83.14
75006;BME280;63553;51.814;4.600;2023-11-19T03:24:02;100932.16;;;13.70;82.69
75006;BME280;63553;51.814;4.600;2023-11-19T03:26:28;100929.44;;;13.61;83.56
75006;BME280;63553;51.814;4.600;2023-11-19T03:28:54;100924.03;;;13.35;82.38
75006;BME280;63553;51.814;4.600;2023-11-19T03:31:20;100929.69;;;13.27;82.84
75006;BME280;63553;51.814;4.600;2023-11-19T03:33:45;100924.72;;;13.32;82.94
75006;BME280;63553;51.814;4.600;2023-11-19T03:36:12;100919.75;;;13.79;82.74
75006;BME280;63553;51.814;4.600;2023-11-19T03:38:38;100921.59;;;13.55;82.83
75006;BME280;63553;51.814;4.600;2023-11-19T03:41:13;100929.66;;;13.56;81.88
75006;BME280;63553;51.814;4.600;2023-11-19T03:43:39;100930.03;;;13.46;82.36
75006;BME280;63553;51.814;4.600;2023-11-19T03:46:15;100936.66;;;13.42;80.93
75006;BME280;63553;51.814;4.600;2023-11-19T03:48:43;100932.75;;;13.75;82.39
75006;BME280;63553;51.814;4.600;2023-11-19T03:51:08;100931.00;;;13.71;80.63
75006;BME280;63553;51.814;4.600;2023-11-19T03:53:34;100935.06;;;14.15;81.44
75006;BME280;63553;51.814;4.600;2023-11-19T03:56:00;100934.03;;;13.99;80.07
75006;BME280;63553;51.814;4.600;2023-11-19T03:58:26;100934.66;;;14.04;81.09
75006;BME280;63553;51.814;4.600;2023-11-19T04:00:51;100934.81;;;13.87;80.61
75006;BME280;63553;51.814;4.600;2023-11-19T04:03:17;100930.88;;;13.67;80.23
75006;BME280;63553;51.814;4.600;2023-11-19T04:05:44;100948.91;;;13.90;80.83
75006;BME280;63553;51.814;4.600;2023-11-19T04:08:10;100934.69;;;13.83;80.22
75006;BME280;63553;51.814;4.600;2023-11-19T04:10:35;100936.47;;;14.21;80.13
75006;BME280;63553;51.814;4.600;2023-11-19T04:13:00;100938.63;;;13.82;80.05
75006;BME280;63553;51.814;4.600;2023-11-19T04:15:26;100936.47;;;13.67;80.48
75006;BME280;63553;51.814;4.600;2023-11-19T04:17:51;100941.91;;;13.84;80.90
75006;BME280;63553;51.814;4.600;2023-11-19T04:20:16;100946.75;;;13.75;78.83
75006;BME280;63553;51.814;4.600;2023-11-19T04:22:42;100944.09;;;13.79;80.90
75006;BME280;63553;51.814;4.600;2023-11-19T04:25:07;100944.44;;;13.77;79.16
75006;BME280;63553;51.814;4.600;2023-11-19T04:27:33;100943.06;;;13.83;79.44
75006;BME280;63553;51.814;4.600;2023-11-19T04:29:59;100951.03;;;13.52;80.52
75006;BME280;63553;51.814;4.600;2023-11-19T04:32:26;100948.72;;;13.75;80.55
75006;BME280;63553;51.814;4.600;2023-11-19T04:34:52;100950.13;;;13.81;80.41
75006;BME280;63553;51.814;4.600;2023-11-19T04:37:17;100964.88;;;13.69;80.52
75006;BME280;63553;51.814;4.600;2023-11-19T04:39:44;100959.09;;;13.74;79.64
75006;BME280;63553;51.814;4.600;2023-11-19T04:42:11;100955.19;;;13.67;79.45
75006;BME280;63553;51.814;4.600;2023-11-19T04:44:37;100957.72;;;13.80;80.08
75006;BME280;63553;51.814;4.600;2023-11-19T04:47:03;100954.38;;;13.87;79.76
75006;BME280;63553;51.814;4.600;2023-11-19T04:49:28;100964.03;;;13.48;79.55
75006;BME280;63553;51.814;4.600;2023-11-19T04:51:55;100953.50;;;13.95;80.38
75006;BME280;63553;51.814;4.600;2023-11-19T04:54:20;100956.31;;;13.45;78.66
75006;BME280;63553;51.814;4.600;2023-11-19T04:56:46;100961.88;;;13.54;79.89
75006;BME280;63553;51.814;4.600;2023-11-19T04:59:12;100961.75;;;13.71;80.08
75006;BME280;63553;51.814;4.600;2023-11-19T05:01:37;100950.13;;;13.40;80.51
75006;BME280;63553;51.814;4.600;2023-11-19T05:04:03;100944.50;;;13.69;79.95
75006;BME280;63553;51.814;4.600;2023-11-19T05:06:29;100954.38;;;13.66;80.36
75006;BME280;63553;51.814;4.600;2023-11-19T05:08:56;100963.22;;;13.48;80.90
75006;BME280;63553;51.814;4.600;2023-11-19T05:11:21;100957.53;;;13.85;80.60
75006;BME280;63553;51.814;4.600;2023-11-19T05:13:47;100966.72;;;13.65;80.77
75006;BME280;63553;51.814;4.600;2023-11-19T05:16:12;100957.66;;;13.48;80.25
75006;BME280;63553;51.814;4.600;2023-11-19T05:18:40;100951.84;;;13.53;79.84
75006;BME280;63553;51.814;4.600;2023-11-19T05:21:05;100963.72;;;13.70;80.00
75006;BME280;63553;51.814;4.600;2023-11-19T05:23:30;100956.38;;;13.86;79.40
75006;BME280;63553;51.814;4.600;2023-11-19T05:25:56;100967.94;;;13.76;79.91
75006;BME280;63553;51.814;4.600;2023-11-19T05:28:23;100967.47;;;13.74;80.30
75006;BME280;63553;51.814;4.600;2023-11-19T05:30:49;100962.50;;;13.80;80.10
75006;BME280;63553;51.814;4.600;2023-11-19T05:33:15;100968.63;;;13.73;79.71
75006;BME280;63553;51.814;4.600;2023-11-19T05:35:40;100978.09;;;13.81;80.15
75006;BME280;63553;51.814;4.600;2023-11-19T05:38:06;100968.81;;;14.10;79.30
75006;BME280;63553;51.814;4.600;2023-11-19T05:40:31;100965.53;;;13.87;79.03
75006;BME280;63553;51.814;4.600;2023-11-19T05:42:57;100966.09;;;13.39;79.23
75006;BME280;63553;51.814;4.600;2023-11-19T05:45:22;100965.47;;;13.54;80.25
75006;BME280;63553;51.814;4.600;2023-11-19T05:47:47;100964.50;;;13.29;78.67
75006;BME280;63553;51.814;4.600;2023-11-19T05:50:12;100961.56;;;13.26;80.82
75006;BME280;63553;51.814;4.600;2023-11-19T05:52:38;100952.91;;;13.10;80.61
75006;BME280;63553;51.814;4.600;2023-11-19T05:55:04;100948.25;;;13.23;81.58
75006;BME280;63553;51.814;4.600;2023-11-19T05:57:31;100951.84;;;12.94;81.29
75006;BME280;63553;51.814;4.600;2023-11-19T05:59:56;100945.72;;;13.01;80.77
75006;BME280;63553;51.814;4.600;2023-11-19T06:02:22;100955.56;;;12.98;81.56
75006;BME280;63553;51.814;4.600;2023-11-19T06:04:47;100938.97;;;12.72;82.25
75006;BME280;63553;51.814;4.600;2023-11-19T06:07:13;100939.50;;;12.95;82.11
75006;BME280;63553;51.814;4.600;2023-11-19T06:09:40;100955.13;;;13.25;81.39
75006;BME280;63553;51.814;4.600;2023-11-19T06:12:06;100946.72;;;12.96;81.69
75006;BME280;63553;51.814;4.600;2023-11-19T06:14:32;100942.59;;;13.11;81.17
75006;BME280;63553;51.814;4.600;2023-11-19T06:16:57;100945.66;;;13.18;81.22
75006;BME280;63553;51.814;4.600;2023-11-19T06:19:23;100948.91;;;12.91;81.27
75006;BME280;63553;51.814;4.600;2023-11-19T06:21:50;100952.88;;;12.81;82.86
75006;BME280;63553;51.814;4.600;2023-11-19T06:24:15;100958.72;;;12.97;81.93
75006;BME280;63553;51.814;4.600;2023-11-19T06:26:40;100963.28;;;12.63;82.35
75006;BME280;63553;51.814;4.600;2023-11-19T06:29:06;100957.16;;;12.78;82.40
75006;BME280;63553;51.814;4.600;2023-11-19T06:31:31;100956.09;;;13.00;82.36
75006;BME280;63553;51.814;4.600;2023-11-19T06:33:56;100940.19;;;13.30;82.08
75006;BME280;63553;51.814;4.600;2023-11-19T06:36:22;100959.00;;;13.12;80.18
75006;BME280;63553;51.814;4.600;2023-11-19T06:38:47;100949.16;;;12.98;81.94
75006;BME280;63553;51.814;4.600;2023-11-19T06:41:13;100960.41;;;12.80;83.16
75006;BME280;63553;51.814;4.600;2023-11-19T06:43:38;100962.72;;;12.78;83.68
75006;BME280;63553;51.814;4.600;2023-11-19T06:46:04;100964.28;;;12.50;83.78
75006;BME280;63553;51.814;4.600;2023-11-19T06:48:32;100971.31;;;12.56;83.55
75006;BME280;63553;51.814;4.600;2023-11-19T06:50:57;100981.66;;;12.64;84.18
75006;BME280;63553;51.814;4.600;2023-11-19T06:53:23;100990.88;;;12.39;83.75
75006;BME280;63553;51.814;4.600;2023-11-19T06:55:48;100991.78;;;12.77;83.38
75006;BME280;63553;51.814;4.600;2023-11-19T06:58:13;100995.06;;;12.71;82.03
75006;BME280;63553;51.814;4.600;2023-11-19T07:00:39;100996.13;;;12.49;82.93
75006;BME280;63553;51.814;4.600;2023-11-19T07:03:04;101000.63;;;12.88;82.48
75006;BME280;63553;51.814;4.600;2023-11-19T07:05:31;101000.19;;;12.60;82.04
75006;BME280;63553;51.814;4.600;2023-11-19T07:07:56;101005.97;;;12.55;83.53
75006;BME280;63553;51.814;4.600;2023-11-19T07:10:22;101005.59;;;12.65;82.75
75006;BME280;63553;51.814;4.600;2023-11-19T07:12:47;101005.31;;;12.58;82.76
75006;BME280;63553;51.814;4.600;2023-11-19T07:15:15;100996.00;;;12.29;83.16
75006;BME280;63553;51.814;4.600;2023-11-19T07:17:42;100985.28;;;12.65;83.59
75006;BME280;63553;51.814;4.600;2023-11-19T07:20:10;101001.03;;;12.61;83.58
75006;BME280;63553;51.814;4.600;2023-11-19T07:22:38;100990.31;;;12.71;83.63
75006;BME280;63553;51.814;4.600;2023-11-19T07:25:04;100993.63;;;12.56;83.30
75006;BME280;63553;51.814;4.600;2023-11-19T07:27:29;100999.63;;;12.84;82.68
75006;BME280;63553;51.814;4.600;2023-11-19T07:29:55;100999.56;;;12.55;83.11
75006;BME280;63553;51.814;4.600;2023-11-19T07:32:21;101003.34;;;12.59;82.37
75006;BME280;63553;51.814;4.600;2023-11-19T07:34:46;101002.22;;;12.25;83.51
75006;BME280;63553;51.814;4.600;2023-11-19T07:37:11;101013.06;;;12.01;83.79
75006;BME280;63553;51.814;4.600;2023-11-19T07:39:37;100999.25;;;12.39;84.32
75006;BME280;63553;51.814;4.600;2023-11-19T07:42:05;101002.06;;;12.22;84.34
75006;BME280;63553;51.814;4.600;2023-11-19T07:44:31;101000.78;;;12.83;83.43
75006;BME280;63553;51.814;4.600;2023-11-19T07:46:57;100994.59;;;13.24;80.35
75006;BME280;63553;51.814;4.600;2023-11-19T07:49:23;101002.84;;;13.12;81.84
75006;BME280;63553;51.814;4.600;2023-11-19T07:51:49;100993.53;;;12.91;82.95
75006;BME280;63553;51.814;4.600;2023-11-19T07:54:14;101007.31;;;13.42;82.12
75006;BME280;63553;51.814;4.600;2023-11-19T07:56:39;100997.72;;;13.72;79.56
75006;BME280;63553;51.814;4.600;2023-11-19T07:59:05;100993.25;;;13.80;79.30
75006;BME280;63553;51.814;4.600;2023-11-19T08:01:30;100991.50;;;13.46;78.68
75006;BME280;63553;51.814;4.600;2023-11-19T08:03:55;101004.22;;;13.85;78.24
75006;BME280;63553;51.814;4.600;2023-11-19T08:06:21;101004.59;;;13.96;77.74
75006;BME280;63553;51.814;4.600;2023-11-19T08:08:46;101002.22;;;14.06;77.72
75006;BME280;63553;51.814;4.600;2023-11-19T08:11:13;101002.38;;;13.89;78.04
75006;BME280;63553;51.814;4.600;2023-11-19T08:13:38;101003.06;;;13.86;78.05
75006;BME280;63553;51.814;4.600;2023-11-19T08:16:04;101008.84;;;14.02;77.03
75006;BME280;63553;51.814;4.600;2023-11-19T08:18:30;101015.75;;;14.25;76.57
75006;BME280;63553;51.814;4.600;2023-11-19T08:20:55;101013.28;;;14.03;76.55
75006;BME280;63553;51.814;4.600;2023-11-19T08:23:21;101008.97;;;13.84;76.91
75006;BME280;63553;51.814;4.600;2023-11-19T08:25:48;101020.59;;;13.95;77.21
75006;BME280;63553;51.814;4.600;2023-11-19T08:28:14;101020.72;;;14.40;76.78
75006;BME280;63553;51.814;4.600;2023-11-19T08:30:40;101025.59;;;14.22;76.17
75006;BME280;63553;51.814;4.600;2023-11-19T08:33:05;101026.16;;;14.57;76.26
75006;BME280;63553;51.814;4.600;2023-11-19T08:35:32;101015.31;;;14.35;77.14
75006;BME280;63553;51.814;4.600;2023-11-19T08:37:57;101018.13;;;14.14;76.39
75006;BME280;63553;51.814;4.600;2023-11-19T08:40:24;101021.28;;;14.33;75.73
75006;BME280;63553;51.814;4.600;2023-11-19T08:42:51;101015.13;;;14.19;76.99
75006;BME280;63553;51.814;4.600;2023-11-19T08:45:16;101015.59;;;14.42;75.62
75006;BME280;63553;51.814;4.600;2023-11-19T08:47:41;101010.28;;;14.61;74.54
75006;BME280;63553;51.814;4.600;2023-11-19T08:50:07;101014.38;;;14.52;74.19
75006;BME280;63553;51.814;4.600;2023-11-19T08:52:33;101006.53;;;14.90;74.22
75006;BME280;63553;51.814;4.600;2023-11-19T08:54:58;101020.56;;;15.38;73.19
75006;BME280;63553;51.814;4.600;2023-11-19T08:57:24;101008.56;;;15.38;72.35
75006;BME280;63553;51.814;4.600;2023-11-19T08:59:49;101003.84;;;15.18;72.34
75006;BME280;63553;51.814;4.600;2023-11-19T09:02:15;101002.59;;;15.15;71.80
75006;BME280;63553;51.814;4.600;2023-11-19T09:04:40;101008.31;;;15.19;72.13
75006;BME280;63553;51.814;4.600;2023-11-19T09:07:06;101013.47;;;15.29;72.61
75006;BME280;63553;51.814;4.600;2023-11-19T09:09:32;101010.09;;;15.47;72.44
75006;BME280;63553;51.814;4.600;2023-11-19T09:12:01;101014.63;;;15.28;70.94
75006;BME280;63553;51.814;4.600;2023-11-19T09:14:26;101010.28;;;15.42;71.98
75006;BME280;63553;51.814;4.600;2023-11-19T09:16:52;101005.38;;;15.39;71.76
75006;BME280;63553;51.814;4.600;2023-11-19T09:19:18;101009.47;;;15.30;71.90
75006;BME280;63553;51.814;4.600;2023-11-19T09:21:43;101014.78;;;15.55;72.26
75006;BME280;63553;51.814;4.600;2023-11-19T09:24:09;101007.16;;;15.56;72.11
75006;BME280;63553;51.814;4.600;2023-11-19T09:26:34;100999.66;;;15.36;71.33
75006;BME280;63553;51.814;4.600;2023-11-19T09:29:01;101007.28;;;15.60;71.43
75006;BME280;63553;51.814;4.600;2023-11-19T09:31:26;101005.78;;;15.50;71.68
75006;BME280;63553;51.814;4.600;2023-11-19T09:33:52;100998.25;;;15.78;71.13
75006;BME280;63553;51.814;4.600;2023-11-19T09:36:17;101003.66;;;15.23;71.92
75006;BME280;63553;51.814;4.600;2023-11-19T09:38:44;101008.09;;;15.72;71.65
75006;BME280;63553;51.814;4.600;2023-11-19T09:41:10;101006.44;;;15.59;71.58
75006;BME280;63553;51.814;4.600;2023-11-19T09:43:41;101005.75;;;15.62;71.37
75006;BME280;63553;51.814;4.600;2023-11-19T09:46:10;101007.38;;;15.75;71.20
75006;BME280;63553;51.814;4.600;2023-11-19T09:48:39;101008.16;;;16.00;70.02
75006;BME280;63553;51.814;4.600;2023-11-19T09:51:10;101004.66;;;15.91;70.52
75006;BME280;63553;51.814;4.600;2023-11-19T09:53:36;100999.38;;;16.01;69.56
75006;BME280;63553;51.814;4.600;2023-11-19T09:56:04;101005.00;;;16.29;69.11
75006;BME280;63553;51.814;4.600;2023-11-19T09:58:30;100999.97;;;16.62;68.59
75006;BME280;63553;51.814;4.600;2023-11-19T10:00:56;100991.25;;;16.24;68.64
75006;BME280;63553;51.814;4.600;2023-11-19T10:03:25;101003.44;;;16.44;68.96
75006;BME280;63553;51.814;4.600;2023-11-19T10:05:52;100994.06;;;16.24;69.13
75006;BME280;63553;51.814;4.600;2023-11-19T10:08:18;100981.97;;;16.51;68.40
75006;BME280;63553;51.814;4.600;2023-11-19T10:10:43;101000.25;;;16.45;68.56
75006;BME280;63553;51.814;4.600;2023-11-19T10:13:09;101005.06;;;16.45;67.40
75006;BME280;63553;51.814;4.600;2023-11-19T10:15:37;101000.56;;;16.99;66.99
75006;BME280;63553;51.814;4.600;2023-11-19T10:18:03;100988.44;;;16.95;66.30
75006;BME280;63553;51.814;4.600;2023-11-19T10:20:40;100996.94;;;17.30;65.97
75006;BME280;63553;51.814;4.600;2023-11-19T10:23:05;100990.75;;;17.40;65.55
75006;BME280;63553;51.814;4.600;2023-11-19T10:25:32;100993.75;;;17.32;65.79
75006;BME280;63553;51.814;4.600;2023-11-19T10:27:58;100986.06;;;17.29;66.18
75006;BME280;63553;51.814;4.600;2023-11-19T10:30:26;100994.53;;;16.70;67.52
75006;BME280;63553;51.814;4.600;2023-11-19T10:33:09;100994.31;;;16.75;67.45
75006;BME280;63553;51.814;4.600;2023-11-19T10:35:54;100995.28;;;16.82;68.18
75006;BME280;63553;51.814;4.600;2023-11-19T10:38:21;101000.16;;;16.42;67.77
75006;BME280;63553;51.814;4.600;2023-11-19T10:40:48;100989.69;;;16.82;68.04
75006;BME280;63553;51.814;4.600;2023-11-19T10:43:13;100980.91;;;16.99;67.04
75006;BME280;63553;51.814;4.600;2023-11-19T10:45:39;100983.81;;;17.18;66.65
75006;BME280;63553;51.814;4.600;2023-11-19T10:48:05;100984.25;;;17.36;66.49
75006;BME280;63553;51.814;4.600;2023-11-19T10:50:33;100987.88;;;17.21;67.08
75006;BME280;63553;51.814;4.600;2023-11-19T10:52:59;100989.25;;;17.27;69.04
75006;BME280;63553;51.814;4.600;2023-11-19T10:55:27;100995.16;;;16.63;73.96
75006;BME280;63553;51.814;4.600;2023-11-19T10:57:59;100979.09;;;16.91;82.98
75006;BME280;63553;51.814;4.600;2023-11-19T11:00:25;100983.44;;;17.20;85.87
75006;BME280;63553;51.814;4.600;2023-11-19T11:02:55;100983.97;;;17.41;87.10
75006;BME280;63553;51.814;4.600;2023-11-19T11:05:22;100985.97;;;17.09;74.86
75006;BME280;63553;51.814;4.600;2023-11-19T11:07:48;100982.34;;;17.09;76.76
75006;BME280;63553;51.814;4.600;2023-11-19T11:10:16;100976.91;;;17.00;72.95
75006;BME280;63553;51.814;4.600;2023-11-19T11:12:43;100983.47;;;16.61;75.15
75006;BME280;63553;51.814;4.600;2023-11-19T11:15:11;100979.44;;;16.74;73.02
75006;BME280;63553;51.814;4.600;2023-11-19T11:17:41;100970.75;;;16.79;73.20
75006;BME280;63553;51.814;4.600;2023-11-19T11:20:08;100973.44;;;16.76;71.79
75006;BME280;63553;51.814;4.600;2023-11-19T11:22:47;100965.25;;;16.55;73.29
75006;BME280;63553;51.814;4.600;2023-11-19T11:29:02;100967.00;;;16.59;72.09
75006;BME280;63553;51.814;4.600;2023-11-19T11:31:48;100969.97;;;16.51;73.13
75006;BME280;63553;51.814;4.600;2023-11-19T11:34:30;100960.94;;;16.73;72.96
75006;BME280;63553;51.814;4.600;2023-11-19T11:37:10;100961.06;;;16.49;73.76
75006;BME280;63553;51.814;4.600;2023-11-19T11:39:40;100958.75;;;16.66;72.94
75006;BME280;63553;51.814;4.600;2023-11-19T11:44:58;100943.31;;;16.45;73.82
75006;BME280;63553;51.814;4.600;2023-11-19T11:47:23;100950.06;;;16.56;73.14
75006;BME280;63553;51.814;4.600;2023-11-19T11:49:49;100932.78;;;16.26;70.48
75006;BME280;63553;51.814;4.600;2023-11-19T11:52:16;100947.38;;;16.59;72.11
75006;BME280;63553;51.814;4.600;2023-11-19T11:54:42;100949.34;;;16.31;73.66
75006;BME280;63553;51.814;4.600;2023-11-19T11:57:12;100950.16;;;16.32;73.04
75006;BME280;63553;51.814;4.600;2023-11-19T11:59:48;100946.34;;;16.24;72.90
75006;BME280;63553;51.814;4.600;2023-11-19T12:02:16;100948.53;;;16.31;73.03
75006;BME280;63553;51.814;4.600;2023-11-19T12:04:42;100944.03;;;16.42;73.66
75006;BME280;63553;51.814;4.600;2023-11-19T12:07:20;100941.75;;;16.32;73.90
75006;BME280;63553;51.814;4.600;2023-11-19T12:09:48;100933.00;;;16.49;74.25
75006;BME280;63553;51.814;4.600;2023-11-19T12:15:03;100920.94;;;16.48;72.81
75006;BME280;63553;51.814;4.600;2023-11-19T12:17:37;100936.28;;;16.51;71.38
75006;BME280;63553;51.814;4.600;2023-11-19T12:20:07;100941.22;;;16.42;71.16
75006;BME280;63553;51.814;4.600;2023-11-19T12:22:44;100940.00;;;16.55;71.79
75006;BME280;63553;51.814;4.600;2023-11-19T12:25:11;100926.28;;;16.38;72.87
75006;BME280;63553;51.814;4.600;2023-11-19T12:27:39;100942.09;;;16.30;72.03
75006;BME280;63553;51.814;4.600;2023-11-19T12:30:05;100942.91;;;16.31;72.22
75006;BME280;63553;51.814;4.600;2023-11-19T12:32:38;100936.88;;;16.44;72.29
75006;BME280;63553;51.814;4.600;2023-11-19T12:35:05;100928.72;;;16.39;73.76
75006;BME280;63553;51.814;4.600;2023-11-19T12:37:30;100928.06;;;16.30;72.40
75006;BME280;63553;51.814;4.600;2023-11-19T12:39:57;100940.75;;;16.40;72.92
75006;BME280;63553;51.814;4.600;2023-11-19T12:42:36;100955.06;;;16.35;72.25
75006;BME280;63553;51.814;4.600;2023-11-19T12:45:02;100927.50;;;16.25;72.43
75006;BME280;63553;51.814;4.600;2023-11-19T12:47:28;100939.56;;;16.25;71.40
75006;BME280;63553;51.814;4.600;2023-11-19T12:49:59;100939.91;;;16.24;72.25
75006;BME280;63553;51.814;4.600;2023-11-19T12:52:24;100932.59;;;16.35;71.71
75006;BME280;63553;51.814;4.600;2023-11-19T12:54:50;100928.06;;;16.30;72.12
75006;BME280;63553;51.814;4.600;2023-11-19T12:57:16;100934.66;;;16.22;71.24